Terminal Aerodrome Forecast
Issued by NWS Kansas City/Pleasant Hill, MO

Home | Current Version | Previous Version | Text Only | Print | Product List | Glossary On
Versions: 1 2 3 4 5 6 7 8 9 10 11 12 13 14 15 16 17 18 19
000
FTUS43 KEAX 262337
TAFMCI
TAF
KMCI 262337Z 2700/2724 35015G25KT 5SM -TSRA BR BKN040CB
      TEMPO 2700/2701 VRB20G35KT 3SM TSRA BR BKN035CB
     FM270800 15010KT P6SM VCTS BKN060CB
     FM271100 16011KT P6SM OVC035
      TEMPO 2711/2715 OVC015
     FM271500 17012KT P6SM BKN035=

USA.gov is the U.S. government's official web portal to all federal, state and local government web resources and services.